Time;durP1;ratioP1;P1;durP2;ratioP2;P2;SDS_P1;SDS_P2;PMS_P1;PMS_P2;Temp;Humidity;BMP_temperature;BMP_pressure;BME280_temperature;BME280_humidity;BME280_pressure;Samples;Min_cycle;Max_cycle;Signal;HPM_P1;HPM_P2
2021/09/11 00:01:06;;;;;;;;;4.75;4.75;;;;;21.46;51.49;101298.72;5000047;28;45479;-57
2021/09/11 00:03:33;;;;;;;;;4.75;4.75;;;;;21.36;51.20;101292.97;4998095;28;48358;-57
2021/09/11 00:05:58;;;;;;;;;5.50;4.50;;;;;21.38;51.38;101304.47;4999945;28;45381;-57
2021/09/11 00:08:23;;;;;;;;;5.75;4.25;;;;;21.38;51.00;101309.81;4999729;28;45428;-58
2021/09/11 00:10:49;;;;;;;;;4.25;4.25;;;;;21.36;51.67;101314.34;4999801;28;45521;-57
2021/09/11 00:13:14;;;;;;;;;6.00;5.00;;;;;21.34;51.25;101318.03;5001927;28;45387;-58
2021/09/11 00:15:40;;;;;;;;;6.00;5.00;;;;;21.33;51.18;101322.50;5003381;28;45300;-57
2021/09/11 00:18:06;;;;;;;;;5.00;5.00;;;;;21.29;51.33;101309.41;5003100;28;45331;-57
2021/09/11 00:20:31;;;;;;;;;0.25;0.00;;;;;21.27;51.78;101318.34;5013892;28;45382;-58
2021/09/11 00:22:59;;;;;;;;;6.00;4.00;;;;;21.26;51.60;101324.63;5004453;28;45352;-57
2021/09/11 00:25:25;;;;;;;;;4.75;4.00;;;;;21.23;51.27;101308.78;5003447;28;45320;-58
2021/09/11 00:27:50;;;;;;;;;5.00;4.25;;;;;21.20;51.78;101314.25;5003019;28;45500;-58
2021/09/11 00:30:16;;;;;;;;;5.25;5.25;;;;;21.17;51.65;101314.41;5003252;28;45262;-57
2021/09/11 00:32:43;;;;;;;;;5.00;5.00;;;;;21.16;51.41;101306.47;5002826;28;46118;-58
2021/09/11 00:35:14;;;;;;;;;3.25;3.25;;;;;21.16;51.91;101307.34;5014597;28;45397;-57
2021/09/11 00:37:40;;;;;;;;;3.25;3.25;;;;;21.14;51.87;101306.53;5022746;28;45269;-58
2021/09/11 00:40:06;;;;;;;;;4.25;4.25;;;;;21.10;51.33;101300.47;5021417;28;45309;-57
2021/09/11 00:42:31;;;;;;;;;5.00;5.00;;;;;21.13;51.40;101306.63;5022711;28;46344;-58
2021/09/11 00:44:56;;;;;;;;;5.25;4.25;;;;;21.13;51.19;101315.53;5022846;28;45399;-57
2021/09/11 00:47:22;;;;;;;;;4.75;4.25;;;;;21.13;51.45;101307.50;5003608;28;45468;-57
2021/09/11 00:49:47;;;;;;;;;5.00;3.25;;;;;21.10;51.43;101308.50;5002554;28;45419;-57
2021/09/11 00:52:13;;;;;;;;;4.75;4.25;;;;;21.10;51.17;101307.63;5002435;28;45953;-57
2021/09/11 00:54:39;;;;;;;;;5.25;4.00;;;;;21.09;51.23;101304.13;5010906;28;45695;-58
2021/09/11 00:57:05;;;;;;;;;3.25;3.00;;;;;21.08;51.31;101309.50;5021738;28;45486;-58
2021/09/11 00:59:31;;;;;;;;;3.75;3.00;;;;;21.06;51.39;101316.75;5022429;28;45313;-58
2021/09/11 01:01:56;;;;;;;;;3.50;3.50;;;;;21.03;51.73;101314.22;5022417;28;45436;-57
2021/09/11 01:04:21;;;;;;;;;3.50;3.50;;;;;21.01;51.67;101308.09;5022321;28;45376;-57
2021/09/11 01:06:48;;;;;;;;;3.50;3.50;;;;;20.99;51.65;101316.16;5022381;28;45266;-57
2021/09/11 01:09:14;;;;;;;;;4.00;4.00;;;;;20.99;51.64;101323.34;5022449;28;45251;-57
2021/09/11 01:11:40;;;;;;;;;4.00;3.00;;;;;20.95;51.27;101319.94;5020845;28;45304;-57
2021/09/11 01:14:05;;;;;;;;;3.00;3.00;;;;;20.96;51.00;101324.34;5008523;28;45262;-57
2021/09/11 01:16:34;;;;;;;;;4.25;3.50;;;;;20.91;51.20;101313.03;5021381;28;45634;-57
2021/09/11 01:18:59;;;;;;;;;3.00;3.00;;;;;20.92;50.81;101330.78;5008128;28;45413;-57
2021/09/11 01:21:24;;;;;;;;;4.25;4.00;;;;;20.90;51.44;101327.31;5020053;28;46975;-57
2021/09/11 01:23:50;;;;;;;;;2.00;2.00;;;;;20.88;51.18;101323.84;5020483;28;45443;-58
2021/09/11 01:26:15;;;;;;;;;4.00;2.25;;;;;20.86;50.70;101326.59;5022206;28;45332;-57
2021/09/11 01:28:41;;;;;;;;;4.00;3.75;;;;;20.84;51.20;101324.94;5008594;28;45428;-57
2021/09/11 01:31:06;;;;;;;;;7.50;3.75;;;;;20.81;51.12;101322.44;5020679;28;46028;-58
2021/09/11 01:33:32;;;;;;;;;4.00;4.00;;;;;20.81;50.76;101319.75;5017964;28;45276;-58
2021/09/11 01:35:57;;;;;;;;;4.75;4.25;;;;;20.78;51.21;101318.97;5020829;28;45520;-58
2021/09/11 01:38:23;;;;;;;;;3.75;3.75;;;;;20.76;50.85;101326.16;5022034;28;45397;-57
2021/09/11 01:40:48;;;;;;;;;3.25;3.25;;;;;20.74;50.96;101327.19;5021540;28;46145;-58
2021/09/11 01:43:14;;;;;;;;;4.75;4.75;;;;;20.71;50.77;101330.84;5008891;28;45253;-57
2021/09/11 01:45:40;;;;;;;;;4.25;3.00;;;;;20.68;51.11;101335.44;5015410;28;45300;-57
2021/09/11 01:48:05;;;;;;;;;4.00;3.50;;;;;20.59;51.05;101316.28;5001978;28;45368;-57
2021/09/11 01:50:30;;;;;;;;;3.75;2.00;;;;;20.63;51.37;101330.34;5000420;28;45889;-57
2021/09/11 01:52:56;;;;;;;;;3.00;3.00;;;;;20.59;50.98;101334.06;5001990;28;45246;-57
2021/09/11 01:55:21;;;;;;;;;4.00;3.00;;;;;20.55;51.21;101327.16;5001896;28;45220;-58
2021/09/11 01:57:47;;;;;;;;;3.75;3.75;;;;;20.52;51.06;101332.66;5001695;28;45387;-57
2021/09/11 02:00:14;;;;;;;;;4.00;3.00;;;;;20.49;50.77;101333.66;5001486;28;45217;-57
2021/09/11 02:02:40;;;;;;;;;5.00;3.50;;;;;20.46;51.11;101328.44;5001860;28;45361;-57
2021/09/11 02:05:07;;;;;;;;;5.75;4.25;;;;;20.42;50.82;101327.72;5001395;28;45312;-57
2021/09/11 02:07:33;;;;;;;;;5.50;5.00;;;;;20.39;51.06;101330.53;5001590;28;45546;-58
2021/09/11 02:09:59;;;;;;;;;3.75;3.75;;;;;20.35;51.38;101326.28;5018057;28;45313;-57
2021/09/11 02:12:24;;;;;;;;;2.00;2.00;;;;;20.33;51.37;101325.50;5009843;28;45261;-57
2021/09/11 02:14:50;;;;;;;;;4.50;3.50;;;;;20.32;50.84;101330.91;5001582;28;45395;-57
2021/09/11 02:17:15;;;;;;;;;2.75;2.50;;;;;20.27;51.11;101331.97;5001685;28;45516;-58
2021/09/11 02:19:40;;;;;;;;;3.25;3.25;;;;;20.27;50.77;101333.78;5014414;28;46878;-57
2021/09/11 02:22:10;;;;;;;;;1.50;1.00;;;;;20.25;51.22;101338.31;5011573;28;45731;-57
2021/09/11 02:24:35;;;;;;;;;4.00;4.00;;;;;20.23;51.31;101340.19;5021154;28;45269;-58
2021/09/11 02:27:01;;;;;;;;;4.00;4.00;;;;;20.19;51.31;101323.44;5021055;28;45244;-58
2021/09/11 02:29:26;;;;;;;;;4.25;2.50;;;;;20.18;51.43;101326.19;5020838;28;46449;-58
2021/09/11 02:31:52;;;;;;;;;4.00;3.00;;;;;20.20;51.36;101326.97;5021053;28;45305;-58
2021/09/11 02:34:17;;;;;;;;;3.00;3.00;;;;;20.20;51.38;101326.97;5010490;28;45337;-58
2021/09/11 02:36:42;;;;;;;;;3.00;3.00;;;;;20.20;50.76;101337.66;5001005;28;45384;-58
2021/09/11 02:39:08;;;;;;;;;3.75;3.75;;;;;20.19;51.26;101330.56;5018089;28;48028;-58
2021/09/11 02:41:35;;;;;;;;;3.00;3.00;;;;;20.18;51.33;101329.72;5009098;28;45707;-58
2021/09/11 02:44:02;;;;;;;;;3.50;3.00;;;;;20.20;50.74;101329.66;5001058;28;45488;-57
2021/09/11 02:46:30;;;;;;;;;4.25;4.25;;;;;20.19;51.29;101326.13;5011663;28;45234;-58
2021/09/11 02:48:55;;;;;;;;;4.00;3.75;;;;;20.18;51.30;101318.19;5001588;28;45644;-58
2021/09/11 02:51:21;;;;;;;;;4.25;3.00;;;;;20.17;51.19;101322.66;5000880;28;45370;-57
2021/09/11 02:53:46;;;;;;;;;4.75;3.00;;;;;20.13;51.17;101313.91;5000915;28;45367;-57
2021/09/11 02:56:11;;;;;;;;;7.00;4.75;;;;;20.16;50.79;101318.25;5000962;28;45308;-57
2021/09/11 02:58:37;;;;;;;;;4.00;4.00;;;;;20.14;50.86;101318.31;5000502;28;46134;-58
2021/09/11 03:01:02;;;;;;;;;4.00;3.00;;;;;20.13;50.75;101313.06;5000916;28;45305;-57
2021/09/11 03:03:27;;;;;;;;;5.75;3.75;;;;;20.14;50.67;101312.97;5000703;28;45439;-58
2021/09/11 03:05:53;;;;;;;;;4.00;4.00;;;;;20.12;50.45;101311.31;5008207;28;45526;-57
2021/09/11 03:08:18;;;;;;;;;4.50;3.50;;;;;20.11;50.85;101313.13;5017812;28;45353;-57
2021/09/11 03:10:43;;;;;;;;;3.50;3.50;;;;;20.12;51.20;101322.88;5008982;28;45230;-57
2021/09/11 03:13:09;;;;;;;;;3.00;3.00;;;;;20.13;50.65;101318.41;4999237;28;45306;-57
2021/09/11 03:15:35;;;;;;;;;6.00;4.50;;;;;20.12;50.97;101320.22;5000723;28;45416;-58
2021/09/11 03:18:00;;;;;;;;;3.25;3.25;;;;;20.11;50.83;101313.13;5017202;28;46001;-57
2021/09/11 03:20:25;;;;;;;;;4.00;4.00;;;;;20.10;51.07;101305.19;5008837;28;45262;-57
2021/09/11 03:22:51;;;;;;;;;4.25;4.00;;;;;20.11;51.03;101314.91;5000677;28;45627;-58
2021/09/11 03:25:16;;;;;;;;;2.25;2.25;;;;;20.09;50.96;101312.31;5000569;28;45235;-57
2021/09/11 03:27:41;;;;;;;;;3.00;3.00;;;;;20.06;50.71;101323.16;5000177;28;46249;-57
2021/09/11 03:30:08;;;;;;;;;2.75;2.75;;;;;20.06;50.70;101324.94;5000519;28;45243;-57
2021/09/11 03:32:33;;;;;;;;;3.50;3.00;;;;;20.05;50.92;101328.53;5000346;28;45322;-57
2021/09/11 03:34:59;;;;;;;;;3.00;3.00;;;;;20.01;50.53;101319.78;5010713;28;45317;-57
2021/09/11 03:37:24;;;;;;;;;3.00;3.00;;;;;20.00;51.12;101323.41;5019904;28;45263;-57
2021/09/11 03:39:49;;;;;;;;;2.75;2.75;;;;;19.96;50.79;101324.47;5018911;28;45396;-57
2021/09/11 03:42:15;;;;;;;;;3.00;3.00;;;;;19.93;50.70;101324.63;5019979;28;45320;-57
2021/09/11 03:44:40;;;;;;;;;2.00;2.00;;;;;19.89;51.04;101315.03;5020167;28;45332;-57
2021/09/11 03:47:06;;;;;;;;;5.00;4.00;;;;;19.86;51.12;101320.47;5015756;28;46088;-57
2021/09/11 03:49:31;;;;;;;;;3.75;3.75;;;;;19.80;51.05;101322.47;5000144;28;45353;-57
2021/09/11 03:51:57;;;;;;;;;4.00;4.00;;;;;19.79;50.97;101328.72;5000159;28;45244;-57
2021/09/11 03:54:22;;;;;;;;;3.75;3.00;;;;;19.76;50.84;101330.66;5000220;28;45533;-57
2021/09/11 03:56:47;;;;;;;;;2.75;2.75;;;;;19.72;50.56;101323.72;4999757;28;46291;-57
2021/09/11 03:59:13;;;;;;;;;3.50;3.00;;;;;19.67;50.96;101329.25;5000283;28;45324;-57
2021/09/11 04:01:38;;;;;;;;;4.00;3.00;;;;;19.67;50.73;101323.91;5000223;28;45231;-57
2021/09/11 04:04:03;;;;;;;;;3.50;3.50;;;;;19.65;50.83;101331.97;5000058;28;45222;-57
2021/09/11 04:06:28;;;;;;;;;4.00;4.00;;;;;19.60;50.69;101338.47;4999865;28;45325;-57
2021/09/11 04:08:54;;;;;;;;;3.00;3.00;;;;;19.58;51.00;101335.84;5000275;28;45229;-57
2021/09/11 04:11:19;;;;;;;;;3.50;3.50;;;;;19.56;50.86;101337.72;4999953;28;45455;-57
2021/09/11 04:13:45;;;;;;;;;3.00;3.00;;;;;19.54;51.07;101341.38;4999983;28;45411;-57
2021/09/11 04:16:10;;;;;;;;;3.00;3.00;;;;;19.50;50.89;101337.97;4999833;28;45620;-58
2021/09/11 04:18:35;;;;;;;;;3.00;3.00;;;;;19.47;51.07;101341.63;4999680;28;45399;-57
2021/09/11 04:21:01;;;;;;;;;3.25;3.00;;;;;19.45;51.33;101340.81;4999825;28;45323;-57
2021/09/11 04:23:26;;;;;;;;;3.75;3.00;;;;;19.44;51.30;101339.09;4999879;28;45464;-57
2021/09/11 04:25:52;;;;;;;;;3.75;3.75;;;;;19.40;51.10;101341.97;4999554;28;46118;-57
2021/09/11 04:28:17;;;;;;;;;4.75;3.25;;;;;19.41;50.99;101343.72;5000023;28;45219;-57
2021/09/11 04:30:42;;;;;;;;;2.50;2.50;;;;;19.37;51.10;101337.63;4999739;28;45357;-57
2021/09/11 04:33:07;;;;;;;;;3.00;2.50;;;;;19.36;51.13;101343.88;4999528;28;45132;-57
2021/09/11 04:35:33;;;;;;;;;4.50;2.75;;;;;19.34;51.04;101345.75;5014650;28;45305;-57
2021/09/11 04:37:59;;;;;;;;;2.00;2.00;;;;;19.30;51.33;101341.47;5019455;28;45379;-57
2021/09/11 04:40:24;;;;;;;;;3.00;3.00;;;;;19.28;51.07;101344.22;5019321;28;45300;-57
2021/09/11 04:42:50;;;;;;;;;2.00;2.00;;;;;19.28;51.34;101346.00;5019211;28;45426;-57
2021/09/11 04:45:15;;;;;;;;;2.75;2.75;;;;;19.24;50.94;101344.38;5017123;28;45430;-57
2021/09/11 04:47:41;;;;;;;;;3.50;2.50;;;;;19.22;51.28;101339.13;4999677;28;45278;-57
2021/09/11 04:50:07;;;;;;;;;1.00;1.00;;;;;19.18;51.20;101340.16;4999295;28;45293;-57
2021/09/11 04:52:32;;;;;;;;;3.25;2.75;;;;;19.16;51.38;101347.38;4999281;28;45433;-57
2021/09/11 04:54:58;;;;;;;;;3.00;2.00;;;;;19.12;51.48;101343.09;4997874;28;47630;-57
2021/09/11 04:57:23;;;;;;;;;2.00;2.00;;;;;19.12;51.48;101348.44;4999260;28;45265;-57
2021/09/11 04:59:50;;;;;;;;;2.25;2.25;;;;;19.07;51.42;101345.06;5002435;28;45202;-57
2021/09/11 05:02:15;;;;;;;;;2.00;2.00;;;;;19.06;51.63;101351.34;5009961;28;45456;-57
2021/09/11 05:04:41;;;;;;;;;1.50;1.00;;;;;19.04;51.53;101346.06;5006758;28;46281;-57
2021/09/11 05:07:06;;;;;;;;;2.25;2.25;;;;;19.03;51.54;101347.00;5006876;28;45178;-57
2021/09/11 05:09:31;;;;;;;;;2.25;2.00;;;;;19.00;51.66;101344.44;5018040;28;45823;-57
2021/09/11 05:12:01;;;;;;;;;1.50;1.50;;;;;18.97;51.83;101349.91;5022394;28;45456;-57
2021/09/11 05:14:26;;;;;;;;;3.00;3.00;;;;;18.94;51.38;101350.91;5022181;28;47232;-57
2021/09/11 05:16:51;;;;;;;;;2.00;2.00;;;;;18.94;51.76;101355.34;5022202;28;45375;-57
2021/09/11 05:19:17;;;;;;;;;1.00;1.00;;;;;18.90;51.51;101348.38;5022141;28;45566;-57
2021/09/11 05:21:42;;;;;;;;;3.00;3.00;;;;;18.88;51.56;101350.22;5022258;28;45468;-57
2021/09/11 05:24:07;;;;;;;;;4.00;4.00;;;;;18.90;51.58;101353.72;5022015;28;45393;-57
2021/09/11 05:26:33;;;;;;;;;2.75;2.75;;;;;18.89;51.63;101354.63;5012138;28;45382;-57
2021/09/11 05:28:58;;;;;;;;;5.00;4.00;;;;;18.89;51.43;101362.63;5017459;28;45555;-57
2021/09/11 05:31:24;;;;;;;;;2.75;2.75;;;;;18.87;51.51;101360.03;5022240;28;45368;-57
2021/09/11 05:33:49;;;;;;;;;2.75;2.00;;;;;18.86;51.76;101360.09;5016353;28;46944;-58
2021/09/11 05:36:14;;;;;;;;;2.00;2.00;;;;;18.85;51.50;101359.19;5022200;28;45237;-57
2021/09/11 05:38:40;;;;;;;;;3.00;3.00;;;;;18.84;51.59;101361.00;5022073;28;45231;-60
2021/09/11 05:41:05;;;;;;;;;6.25;4.75;;;;;18.85;51.54;101369.84;5022064;28;45471;-57
2021/09/11 05:43:30;;;;;;;;;20.75;19.50;;;;;18.86;51.63;101360.09;5021585;28;46296;-57
2021/09/11 05:45:56;;;;;;;;;4.75;4.75;;;;;18.84;51.68;101362.78;5021928;28;45239;-57
2021/09/11 05:48:21;;;;;;;;;3.50;3.50;;;;;18.87;51.67;101369.78;5007258;28;45332;-57
2021/09/11 05:50:46;;;;;;;;;3.00;3.00;;;;;18.84;51.54;101358.34;5001923;28;45384;-57
2021/09/11 05:53:12;;;;;;;;;3.00;3.00;;;;;18.84;51.43;101362.78;5001676;28;45230;-57
2021/09/11 05:55:37;;;;;;;;;3.00;2.00;;;;;18.83;51.56;101364.59;5002053;28;45246;-57
2021/09/11 05:58:03;;;;;;;;;3.00;3.00;;;;;18.87;51.46;101372.44;5001580;28;45492;-57
2021/09/11 06:00:28;;;;;;;;;3.25;3.00;;;;;18.87;51.65;101373.34;5001866;28;45167;-57
2021/09/11 06:02:53;;;;;;;;;3.00;3.00;;;;;18.88;51.69;101387.50;5011596;28;48349;-57
2021/09/11 06:05:19;;;;;;;;;1.50;1.50;;;;;18.88;51.50;101396.38;5021689;28;45569;-57
2021/09/11 06:07:46;;;;;;;;;4.25;2.75;;;;;18.87;51.51;101397.31;5021519;28;45340;-58
2021/09/11 06:10:11;;;;;;;;;2.75;2.75;;;;;18.85;51.98;101396.47;5020363;28;45719;-57
2021/09/11 06:12:37;;;;;;;;;2.00;2.00;;;;;18.86;51.64;101402.69;5021338;28;45226;-58
2021/09/11 06:15:05;;;;;;;;;2.50;2.00;;;;;18.86;51.66;101413.34;5021426;28;45314;-57
2021/09/11 06:17:30;;;;;;;;;1.75;1.25;;;;;18.84;51.69;101414.25;5021445;28;45428;-58
2021/09/11 06:19:55;;;;;;;;;2.00;2.00;;;;;18.84;51.77;101411.59;5020993;28;45431;-58
2021/09/11 06:22:21;;;;;;;;;4.50;3.00;;;;;18.83;52.01;101412.53;5021057;28;45479;-57
2021/09/11 06:24:46;;;;;;;;;4.25;2.50;;;;;18.83;51.62;101415.19;5021212;28;45241;-57
2021/09/11 06:27:13;;;;;;;;;4.00;3.75;;;;;18.83;52.20;101411.66;5021133;28;45463;-62
2021/09/11 06:29:38;;;;;;;;;4.25;3.25;;;;;18.83;51.77;101417.84;5021212;28;45324;-58
2021/09/11 06:32:04;;;;;;;;;4.50;4.00;;;;;18.82;51.76;101416.09;5020563;28;47134;-56
2021/09/11 06:34:30;;;;;;;;;3.00;3.00;;;;;18.80;52.05;101431.28;5014631;28;45467;-57
2021/09/11 06:36:55;;;;;;;;;4.25;3.75;;;;;18.80;51.92;101420.63;5020949;28;45320;-57
2021/09/11 06:39:20;;;;;;;;;4.00;3.00;;;;;18.79;51.89;101426.88;5020981;28;45308;-57
2021/09/11 06:41:46;;;;;;;;;4.00;4.00;;;;;18.79;51.95;101426.00;5020545;28;45324;-56
2021/09/11 06:44:11;;;;;;;;;2.75;2.00;;;;;18.77;52.00;101423.41;5020588;28;45285;-57
2021/09/11 06:46:36;;;;;;;;;4.75;3.00;;;;;18.78;52.23;101414.50;5007843;28;45384;-57
2021/09/11 06:49:03;;;;;;;;;6.25;4.00;;;;;18.78;51.99;101413.59;5000563;28;45551;-57
2021/09/11 06:51:28;;;;;;;;;6.00;3.00;;;;;18.78;52.10;101422.47;5000765;28;45415;-57
2021/09/11 06:53:54;;;;;;;;;1.25;1.25;;;;;18.80;52.29;101425.06;5000642;28;45329;-57
2021/09/11 06:56:20;;;;;;;;;3.00;3.00;;;;;18.82;52.43;101429.41;5000696;28;45510;-57
2021/09/11 06:58:45;;;;;;;;;3.50;2.50;;;;;18.82;52.00;101432.06;5000484;28;45254;-56
2021/09/11 07:01:10;;;;;;;;;3.00;2.50;;;;;18.85;52.03;101425.75;5000548;28;45218;-56
2021/09/11 07:03:36;;;;;;;;;5.25;2.00;;;;;18.84;52.10;101430.25;5000464;28;45275;-56
2021/09/11 07:06:05;;;;;;;;;1.75;1.00;;;;;18.86;52.21;101429.31;4999570;28;45317;-56
2021/09/11 07:08:34;;;;;;;;;4.25;3.00;;;;;18.89;52.17;101431.84;5000369;28;45278;-57
2021/09/11 07:11:00;;;;;;;;;1.25;1.25;;;;;18.89;52.12;101431.84;5000347;28;47496;-57
2021/09/11 07:13:25;;;;;;;;;1.50;1.50;;;;;18.88;52.47;101436.31;5000148;28;45211;-58
2021/09/11 07:15:51;;;;;;;;;2.00;2.00;;;;;18.91;52.18;101438.03;5000685;28;45218;-57
2021/09/11 07:18:17;;;;;;;;;3.00;2.00;;;;;18.93;52.25;101439.69;5005754;28;45202;-58
2021/09/11 07:20:42;;;;;;;;;4.00;3.00;;;;;18.95;52.25;101443.16;5006402;28;45373;-57
2021/09/11 07:23:08;;;;;;;;;2.75;1.75;;;;;18.99;52.24;101451.91;4999090;28;46055;-57
2021/09/11 07:25:33;;;;;;;;;2.25;2.00;;;;;19.00;52.21;101448.31;5000663;28;45574;-55
2021/09/11 07:27:58;;;;;;;;;4.25;1.00;;;;;19.02;51.85;101451.81;5000252;28;45448;-58
2021/09/11 07:30:24;;;;;;;;;1.00;1.00;;;;;19.04;52.02;101441.94;4998841;28;46931;-55
2021/09/11 07:32:50;;;;;;;;;2.00;2.00;;;;;19.06;52.10;101447.22;4998494;28;45381;-54
2021/09/11 07:35:16;;;;;;;;;1.00;1.00;;;;;19.08;51.75;101448.91;5013135;28;45338;-55
2021/09/11 07:37:41;;;;;;;;;1.00;1.00;;;;;19.12;52.24;101445.19;5019726;28;45412;-56
2021/09/11 07:40:08;;;;;;;;;2.00;2.00;;;;;19.15;51.88;101458.38;5019655;28;45413;-56
2021/09/11 07:42:33;;;;;;;;;2.00;1.00;;;;;19.17;51.91;101455.66;5019657;28;45404;-57
2021/09/11 07:44:59;;;;;;;;;1.00;1.00;;;;;19.20;51.91;101444.88;5019827;28;45503;-57
2021/09/11 07:47:24;;;;;;;;;2.00;1.00;;;;;19.22;51.80;101451.03;5000671;28;45535;-57
2021/09/11 07:49:50;;;;;;;;;0.00;0.00;;;;;19.26;51.79;101457.09;4999888;28;45222;-56
2021/09/11 07:52:15;;;;;;;;;1.00;1.00;;;;;19.26;51.45;101446.44;4998507;28;45259;-57
2021/09/11 07:54:41;;;;;;;;;1.00;1.00;;;;;19.29;51.48;101446.31;5000482;28;45230;-56
2021/09/11 07:57:06;;;;;;;;;3.00;1.50;;;;;19.33;51.04;101447.91;4999846;28;45246;-56
2021/09/11 07:59:32;;;;;;;;;2.00;0.75;;;;;19.36;51.22;101455.81;4999930;28;46141;-56
2021/09/11 08:01:57;;;;;;;;;2.00;2.00;;;;;19.40;51.02;101448.56;4999737;28;45270;-56
2021/09/11 08:04:22;;;;;;;;;1.00;1.00;;;;;19.41;51.18;101445.81;5006752;28;45237;-56
2021/09/11 08:06:47;;;;;;;;;1.00;1.00;;;;;19.40;50.66;101449.41;5017696;28;45236;-57
2021/09/11 08:09:13;;;;;;;;;1.25;1.25;;;;;19.52;50.99;101458.72;5019607;28;45333;-60
2021/09/11 08:11:38;;;;;;;;;1.50;1.50;;;;;19.57;50.63;101462.06;5019568;28;45704;-55
2021/09/11 08:14:06;;;;;;;;;2.50;2.00;;;;;19.58;50.39;101457.59;5018225;28;45607;-56
2021/09/11 08:16:32;;;;;;;;;1.00;1.00;;;;;19.67;50.65;101470.53;5019347;28;45271;-56
2021/09/11 08:18:57;;;;;;;;;1.00;1.00;;;;;19.71;50.40;101469.50;5019043;28;45985;-57
2021/09/11 08:21:22;;;;;;;;;4.75;2.75;;;;;19.75;50.39;101473.78;5019339;28;45268;-57
2021/09/11 08:23:48;;;;;;;;;2.00;2.00;;;;;19.81;50.26;101476.19;5019694;28;45693;-57
2021/09/11 08:26:14;;;;;;;;;3.00;1.75;;;;;19.86;49.68;101483.16;5019420;28;45374;-57
2021/09/11 08:28:39;;;;;;;;;1.50;1.50;;;;;19.88;50.13;101479.50;5019239;28;45422;-56
2021/09/11 08:31:04;;;;;;;;;1.50;1.50;;;;;19.93;50.09;101479.31;5019282;28;45348;-56
2021/09/11 08:33:30;;;;;;;;;3.00;3.00;;;;;19.96;50.04;101481.84;5016993;28;45428;-56
2021/09/11 08:35:56;;;;;;;;;1.50;1.50;;;;;20.02;49.89;101489.59;5021148;28;45245;-57
2021/09/11 08:38:21;;;;;;;;;1.25;1.25;;;;;20.05;49.20;101491.25;5022739;28;45416;-56
2021/09/11 08:40:46;;;;;;;;;1.00;1.00;;;;;20.06;49.27;101485.88;5022580;28;45310;-57
2021/09/11 08:43:16;;;;;;;;;2.00;1.00;;;;;20.12;49.02;101490.06;5009952;28;45263;-56
2021/09/11 08:45:42;;;;;;;;;0.00;0.00;;;;;20.16;48.96;101485.47;5015973;28;45348;-57
2021/09/11 08:48:07;;;;;;;;;1.25;1.25;;;;;20.19;49.20;101491.56;5002342;28;46190;-57
2021/09/11 08:50:33;;;;;;;;;0.50;0.50;;;;;20.24;49.47;101494.03;5002585;28;45335;-57
2021/09/11 08:52:58;;;;;;;;;1.25;0.00;;;;;20.27;49.34;101496.56;5003018;28;45372;-57
2021/09/11 08:55:23;;;;;;;;;3.50;2.75;;;;;20.32;48.75;101489.22;5002475;28;45400;-57
2021/09/11 08:58:06;;;;;;;;;2.50;1.50;;;;;20.38;49.28;101496.94;5002250;28;45250;-56
2021/09/11 09:00:52;;;;;;;;;2.75;1.25;;;;;20.43;48.47;101486.09;5009831;28;45427;-57
2021/09/11 09:03:30;;;;;;;;;1.00;1.00;;;;;20.48;48.94;101483.19;5021968;28;45494;-57
2021/09/11 09:06:11;;;;;;;;;1.00;1.00;;;;;20.55;49.11;101482.00;5009490;28;45445;-57
2021/09/11 09:08:37;;;;;;;;;1.50;1.50;;;;;20.59;48.94;101491.59;5009262;28;45273;-57
2021/09/11 09:11:28;;;;;;;;;1.00;1.00;;;;;20.62;49.00;101486.13;5021986;28;45321;-58
2021/09/11 09:14:03;;;;;;;;;3.00;2.00;;;;;20.70;49.18;101491.97;5022092;28;45432;-58
2021/09/11 09:16:35;;;;;;;;;2.00;1.00;;;;;20.75;49.21;101490.03;5020692;28;45537;-58
2021/09/11 09:19:12;;;;;;;;;4.50;2.25;;;;;20.83;49.14;101480.78;5021802;28;46102;-58
2021/09/11 09:21:38;;;;;;;;;1.00;1.00;;;;;20.91;48.80;101489.31;5009268;28;45246;-58
2021/09/11 09:24:06;;;;;;;;;1.00;1.00;;;;;21.00;48.58;101490.72;5020856;28;45520;-58
2021/09/11 09:26:51;;;;;;;;;1.00;1.00;;;;;21.04;48.93;101484.28;5021027;28;45457;-58
2021/09/11 09:29:18;;;;;;;;;3.50;2.25;;;;;21.11;48.65;101475.91;5021784;28;45346;-58
2021/09/11 09:31:45;;;;;;;;;4.25;1.50;;;;;21.14;48.64;101469.53;5010705;28;45434;-62
2021/09/11 09:34:53;;;;;;;;;4.00;2.00;;;;;21.27;49.00;101476.03;5005598;28;45301;-58
2021/09/11 09:37:19;;;;;;;;;1.75;1.75;;;;;21.38;48.72;101472.88;5019663;28;45242;-58
2021/09/11 09:39:50;;;;;;;;;3.00;1.50;;;;;21.47;48.48;101481.38;5021500;28;46135;-58
2021/09/11 09:42:18;;;;;;;;;1.75;1.75;;;;;21.54;48.28;101481.00;5020151;28;45291;-58
2021/09/11 09:44:53;;;;;;;;;4.00;3.00;;;;;21.61;48.68;101481.59;5021681;28;45235;-59
2021/09/11 09:47:23;;;;;;;;;9.25;9.00;;;;;21.69;48.55;101471.38;5015642;28;45291;-58
2021/09/11 09:50:08;;;;;;;;;3.75;2.75;;;;;21.81;48.31;101477.06;5001433;28;46378;-58
2021/09/11 09:52:35;;;;;;;;;1.00;1.00;;;;;21.90;47.89;101473.94;5010586;28;45343;-58
2021/09/11 09:55:00;;;;;;;;;3.25;2.25;;;;;22.00;48.32;101474.31;5020152;28;45569;-58
2021/09/11 09:57:27;;;;;;;;;2.00;2.00;;;;;22.13;47.98;101477.25;5021276;28;45334;-58
2021/09/11 09:59:54;;;;;;;;;3.25;2.00;;;;;22.23;48.17;101475.84;5021269;28;45327;-58
2021/09/11 10:02:20;;;;;;;;;3.50;3.50;;;;;22.29;47.87;101467.50;5021514;28;45297;-57
2021/09/11 10:04:49;;;;;;;;;2.75;1.50;;;;;22.38;47.28;101474.22;5021163;28;45327;-56
2021/09/11 10:07:18;;;;;;;;;3.50;3.50;;;;;22.46;47.17;101468.44;5020165;28;45227;-57
2021/09/11 10:09:48;;;;;;;;;4.00;4.00;;;;;22.54;46.95;101458.16;5021121;28;46294;-56
2021/09/11 10:12:42;;;;;;;;;2.50;2.50;;;;;22.62;46.97;101479.22;5019788;28;45368;-57
2021/09/11 10:15:27;;;;;;;;;2.25;2.25;;;;;22.68;46.84;101468.19;5021328;28;45393;-57
2021/09/11 10:17:53;;;;;;;;;2.25;2.25;;;;;22.76;46.93;101478.47;5020816;28;45321;-57
2021/09/11 10:20:19;;;;;;;;;2.00;2.00;;;;;22.80;46.82;101477.34;5020740;28;46333;-55
2021/09/11 10:23:07;;;;;;;;;2.25;2.25;;;;;22.88;46.57;101477.81;5019676;28;45427;-56
2021/09/11 10:25:44;;;;;;;;;7.75;4.75;;;;;22.94;46.33;101466.72;5019806;28;45196;-56
2021/09/11 10:28:17;;;;;;;;;3.00;2.00;;;;;23.01;46.57;101469.97;5020907;28;45476;-56
2021/09/11 10:31:06;;;;;;;;;2.50;2.50;;;;;23.09;46.37;101474.88;5020808;28;46720;-56
2021/09/11 10:33:50;;;;;;;;;3.00;3.00;;;;;23.16;46.28;101465.59;5016809;28;45331;-57
2021/09/11 10:36:22;;;;;;;;;4.00;4.00;;;;;23.20;46.09;101462.63;5001168;28;45410;-58
2021/09/11 10:38:52;;;;;;;;;3.25;2.25;;;;;23.33;46.51;101465.50;5000862;28;45172;-58
2021/09/11 10:41:18;;;;;;;;;4.00;4.00;;;;;23.40;46.47;101459.81;5000853;28;46512;-58
2021/09/11 10:44:06;;;;;;;;;2.00;2.00;;;;;23.51;46.20;101454.69;5000594;28;45328;-57
2021/09/11 10:46:51;;;;;;;;;2.00;2.00;;;;;23.62;46.03;101456.72;5001364;28;45304;-56
2021/09/11 10:49:27;;;;;;;;;2.00;2.00;;;;;23.75;46.34;101464.91;5007722;28;45595;-57
2021/09/11 10:52:19;;;;;;;;;2.75;2.75;;;;;23.86;46.04;101449.06;5020344;28;45455;-57
2021/09/11 10:54:44;;;;;;;;;1.25;1.00;;;;;23.98;45.89;101456.41;5020358;28;45456;-57
2021/09/11 10:57:18;;;;;;;;;2.00;2.00;;;;;24.08;46.04;101459.41;5019758;28;45230;-57
2021/09/11 10:59:47;;;;;;;;;3.25;3.25;;;;;24.16;45.90;101453.56;5020348;28;45418;-57
2021/09/11 11:02:20;;;;;;;;;3.00;1.50;;;;;24.24;45.72;101454.00;5020531;28;45248;-57
2021/09/11 11:05:05;;;;;;;;;4.00;3.00;;;;;24.32;45.47;101461.56;5020114;28;45479;-58
2021/09/11 11:07:33;;;;;;;;;4.75;3.25;;;;;24.38;45.77;101457.63;5020425;28;45279;-57
2021/09/11 11:09:59;;;;;;;;;5.00;2.00;;;;;24.45;46.24;101459.88;5020060;28;45404;-57
2021/09/11 11:12:47;;;;;;;;;2.75;2.75;;;;;24.54;45.09;101462.94;5020087;28;45483;-58
2021/09/11 11:15:15;;;;;;;;;2.00;2.00;;;;;24.58;44.99;101469.84;5011399;28;45341;-58
2021/09/11 11:17:46;;;;;;;;;3.75;3.00;;;;;24.59;44.99;101474.25;5014932;28;45237;-57
2021/09/11 11:20:13;;;;;;;;;2.50;2.00;;;;;24.61;45.03;101469.66;5020077;28;45371;-58
2021/09/11 11:22:41;;;;;;;;;3.25;3.25;;;;;24.64;45.22;101466.78;5018694;28;47244;-57
2021/09/11 11:25:31;;;;;;;;;1.75;1.75;;;;;24.63;45.08;101468.59;5020365;28;45518;-58